Time;durP1;ratioP1;P1;durP2;ratioP2;P2;SDS_P1;SDS_P2;PMS_P1;PMS_P2;Temp;Humidity;BMP_temperature;BMP_pressure;BME280_temperature;BME280_humidity;BME280_pressure;Samples;Min_cycle;Max_cycle;Signal;HPM_P1;HPM_P2
2021/08/30 00:00:47;;;;;;;3.60;3.40;;;19.20;59.40;;;;;;5031769;28;20040;-85
2021/08/30 00:03:13;;;;;;;3.67;3.47;;;19.20;59.40;;;;;;5054738;28;20559;-84
2021/08/30 00:05:39;;;;;;;3.45;3.35;;;19.20;59.40;;;;;;5054589;28;20025;-84
2021/08/30 00:08:05;;;;;;;3.42;3.33;;;19.20;59.50;;;;;;5054726;28;20519;-84
2021/08/30 00:10:31;;;;;;;3.70;3.50;;;19.20;59.70;;;;;;5053486;28;20029;-85
2021/08/30 00:12:57;;;;;;;3.65;3.45;;;19.10;59.70;;;;;;5051420;28;20021;-84
2021/08/30 00:15:23;;;;;;;3.80;3.60;;;19.10;59.80;;;;;;5052897;28;20025;-84
2021/08/30 00:17:51;;;;;;;3.60;3.40;;;19.10;59.80;;;;;;5053662;28;20036;-84
2021/08/30 00:20:19;;;;;;;3.55;3.40;;;19.10;59.80;;;;;;5054863;28;20053;-85
2021/08/30 00:22:45;;;;;;;3.70;3.50;;;19.10;59.70;;;;;;5054498;28;20096;-86
2021/08/30 00:25:11;;;;;;;3.35;3.25;;;19.10;59.90;;;;;;5053440;28;20496;-85
2021/08/30 00:27:38;;;;;;;4.75;3.58;;;19.10;59.90;;;;;;5050259;28;20033;-84
2021/08/30 00:30:05;;;;;;;3.42;3.33;;;19.10;60.00;;;;;;5055868;28;20029;-83
2021/08/30 00:32:31;;;;;;;3.38;3.25;;;19.10;60.00;;;;;;5052528;28;20036;-85
2021/08/30 00:34:57;;;;;;;3.83;3.63;;;19.00;60.10;;;;;;5038006;28;20091;-84
2021/08/30 00:37:23;;;;;;;7.82;4.28;;;19.10;60.30;;;;;;5057875;28;20021;-85
2021/08/30 00:39:50;;;;;;;3.40;3.30;;;19.00;60.40;;;;;;5051067;28;20501;-82
2021/08/30 00:42:16;;;;;;;3.88;3.67;;;19.00;60.40;;;;;;5059876;28;20036;-84
2021/08/30 00:44:42;;;;;;;3.30;3.20;;;19.00;60.40;;;;;;5058050;28;20040;-84
2021/08/30 00:47:09;;;;;;;3.85;3.65;;;19.00;60.40;;;;;;5057313;28;20051;-84
2021/08/30 00:49:35;;;;;;;3.85;3.65;;;19.00;60.30;;;;;;5058190;28;20040;-83
2021/08/30 00:52:01;;;;;;;3.65;3.45;;;18.90;60.40;;;;;;5053947;28;20032;-85
2021/08/30 00:54:27;;;;;;;3.58;3.38;;;18.90;60.60;;;;;;5055910;28;20025;-84
2021/08/30 00:56:53;;;;;;;3.90;3.30;;;18.90;60.70;;;;;;5091149;28;20032;-83
2021/08/30 00:59:19;;;;;;;3.55;3.35;;;18.90;60.70;;;;;;5057567;28;20032;-84
2021/08/30 01:01:45;;;;;;;3.40;3.30;;;18.90;60.70;;;;;;5056925;28;20060;-84
2021/08/30 01:04:12;;;;;;;3.30;3.13;;;18.90;60.70;;;;;;5056431;28;20025;-83
2021/08/30 01:06:58;;;;;;;3.40;3.30;;;18.90;60.80;;;;;;5020573;28;20379;-84
2021/08/30 01:09:33;;;;;;;3.70;3.50;;;18.80;60.80;;;;;;5066163;28;20039;-84
2021/08/30 01:12:09;;;;;;;3.20;3.08;;;18.80;61.00;;;;;;5056246;28;20028;-85
2021/08/30 01:14:56;;;;;;;3.80;3.60;;;18.80;61.10;;;;;;5057630;28;20045;-84
2021/08/30 01:17:23;;;;;;;3.17;3.08;;;18.80;61.10;;;;;;5039248;28;20100;-84
2021/08/30 01:20:11;;;;;;;3.60;3.40;;;18.80;61.10;;;;;;5024645;28;20044;-84
2021/08/30 01:22:43;;;;;;;3.13;3.03;;;18.80;61.10;;;;;;5056341;28;20043;-84
2021/08/30 01:25:11;;;;;;;3.22;3.13;;;18.80;61.00;;;;;;5038333;28;20017;-84
2021/08/30 01:27:37;;;;;;;3.00;2.90;;;18.80;61.00;;;;;;5036714;28;20040;-84
2021/08/30 01:30:09;;;;;;;3.42;3.28;;;18.80;61.00;;;;;;5057241;28;20390;-84
2021/08/30 01:32:37;;;;;;;3.20;3.10;;;18.80;61.00;;;;;;5055799;28;20033;-86
2021/08/30 01:35:07;;;;;;;3.20;3.00;;;18.80;61.10;;;;;;5055913;28;20033;-84
2021/08/30 01:37:36;;;;;;;3.30;3.15;;;18.70;61.00;;;;;;5057083;28;20101;-84
2021/08/30 01:40:03;;;;;;;3.38;3.28;;;18.70;61.00;;;;;;5054350;28;20035;-84
2021/08/30 01:42:29;;;;;;;3.00;2.90;;;18.70;61.00;;;;;;5038072;28;20024;-84
2021/08/30 01:44:55;;;;;;;3.40;3.28;;;18.70;61.10;;;;;;5057937;28;20039;-84
2021/08/30 01:47:21;;;;;;;3.03;2.92;;;18.70;61.20;;;;;;5038244;28;20048;-83
2021/08/30 01:49:59;;;;;;;2.90;2.80;;;18.60;61.20;;;;;;5037516;28;20021;-84
2021/08/30 01:52:26;;;;;;;2.80;2.70;;;18.50;61.40;;;;;;5040888;28;20402;-84
2021/08/30 01:54:53;;;;;;;3.22;3.13;;;18.50;61.70;;;;;;5051690;28;20041;-85
2021/08/30 01:57:21;;;;;;;3.03;2.92;;;18.50;61.80;;;;;;5056683;28;20040;-84
2021/08/30 02:02:31;;;;;;;3.03;2.92;;;18.40;61.90;;;;;;5042815;28;20048;-85
2021/08/30 02:04:58;;;;;;;3.00;2.80;;;18.40;61.90;;;;;;5045488;28;20025;-85
2021/08/30 02:07:24;;;;;;;3.15;2.95;;;18.40;61.90;;;;;;5043124;28;20025;-84
2021/08/30 02:09:50;;;;;;;2.80;2.70;;;18.40;61.90;;;;;;5048773;28;20037;-81
2021/08/30 02:12:16;;;;;;;18.90;2.95;;;18.40;61.90;;;;;;5036909;28;20044;-85
2021/08/30 02:14:42;;;;;;;3.15;3.05;;;18.40;62.00;;;;;;5038855;28;20053;-82
2021/08/30 02:17:08;;;;;;;3.30;3.10;;;18.30;62.00;;;;;;5025668;28;20389;-85
2021/08/30 02:19:41;;;;;;;2.90;2.80;;;18.30;62.10;;;;;;5045511;28;20060;-84
2021/08/30 02:22:31;;;;;;;3.33;3.13;;;18.30;62.10;;;;;;5039604;28;20088;-85
2021/08/30 02:25:02;;;;;;;2.72;2.63;;;18.30;62.20;;;;;;5033997;28;20022;-84
2021/08/30 02:27:39;;;;;;;;;;;18.30;62.20;;;;;;5033659;28;20029;-86
2021/08/30 02:30:13;;;;;;;3.08;2.97;;;18.20;62.30;;;;;;5036087;28;20278;-85
2021/08/30 02:32:40;;;;;;;3.17;3.08;;;18.20;62.50;;;;;;5035623;28;20029;-82
2021/08/30 02:35:06;;;;;;;3.42;3.28;;;18.20;62.50;;;;;;5035539;28;20041;-83
2021/08/30 02:37:34;;;;;;;5.40;3.38;;;18.10;62.40;;;;;;5051892;28;20059;-85
2021/08/30 02:40:00;;;;;;;3.20;3.08;;;18.10;62.50;;;;;;5035243;28;20363;-85
2021/08/30 02:42:28;;;;;;;3.00;2.90;;;18.10;62.50;;;;;;5054001;28;20033;-84
2021/08/30 02:44:54;;;;;;;3.50;3.30;;;18.10;62.60;;;;;;5072304;28;20382;-85
2021/08/30 02:47:20;;;;;;;2.92;2.83;;;18.10;62.60;;;;;;5053863;28;20025;-84
2021/08/30 02:49:46;;;;;;;3.70;3.28;;;18.10;62.70;;;;;;5037956;28;20036;-84
2021/08/30 02:52:13;;;;;;;2.97;2.88;;;18.10;62.70;;;;;;5036940;28;20393;-85
2021/08/30 02:54:40;;;;;;;3.05;2.95;;;18.10;62.80;;;;;;5034675;28;20033;-85
2021/08/30 02:57:06;;;;;;;4.25;3.05;;;18.10;62.80;;;;;;5039544;28;20033;-83
2021/08/30 02:59:33;;;;;;;3.17;3.08;;;18.10;62.80;;;;;;5036816;28;20055;-85
2021/08/30 03:01:59;;;;;;;3.42;3.25;;;18.10;62.80;;;;;;5037641;28;20485;-83
2021/08/30 03:04:26;;;;;;;3.22;3.13;;;18.10;62.60;;;;;;5037944;28;20390;-84
2021/08/30 03:06:52;;;;;;;3.53;3.33;;;18.10;62.60;;;;;;5017420;28;20486;-85
2021/08/30 03:09:18;;;;;;;3.08;2.97;;;18.20;62.60;;;;;;5039421;28;20036;-84
2021/08/30 03:11:44;;;;;;;3.40;3.15;;;18.10;62.60;;;;;;5052650;28;20036;-84
2021/08/30 03:14:10;;;;;;;3.45;3.28;;;18.10;62.60;;;;;;5033151;28;20040;-84
2021/08/30 03:16:36;;;;;;;3.13;2.97;;;18.10;62.60;;;;;;5037014;28;20029;-85
2021/08/30 03:19:02;;;;;;;3.28;3.15;;;18.20;62.70;;;;;;5035059;28;20032;-85
2021/08/30 03:21:28;;;;;;;3.25;3.15;;;18.10;62.70;;;;;;5054055;28;20482;-85
2021/08/30 03:23:55;;;;;;;4.55;3.53;;;18.10;62.70;;;;;;5072048;28;20037;-85
2021/08/30 03:26:22;;;;;;;3.15;3.05;;;18.10;62.90;;;;;;5054026;28;20025;-85
2021/08/30 03:28:49;;;;;;;3.22;3.03;;;18.10;63.00;;;;;;5037389;28;20433;-85
2021/08/30 03:31:15;;;;;;;3.47;3.28;;;18.10;63.10;;;;;;5036142;28;20112;-86
2021/08/30 03:33:41;;;;;;;3.30;3.20;;;18.10;63.10;;;;;;5050217;28;20402;-84
2021/08/30 03:36:07;;;;;;;3.20;3.10;;;18.10;63.00;;;;;;5055654;28;20457;-82
2021/08/30 03:38:33;;;;;;;3.53;3.35;;;18.10;62.90;;;;;;5053798;28;20032;-84
2021/08/30 03:40:59;;;;;;;3.70;3.50;;;18.10;62.80;;;;;;5053365;28;20438;-84
2021/08/30 03:43:26;;;;;;;3.28;3.17;;;18.10;62.80;;;;;;5038856;28;20033;-84
2021/08/30 03:45:52;;;;;;;3.88;3.67;;;18.10;62.90;;;;;;5047610;28;20474;-85
2021/08/30 03:48:19;;;;;;;3.13;3.03;;;18.10;62.90;;;;;;5056320;28;20029;-83
2021/08/30 03:50:45;;;;;;;3.50;3.33;;;18.10;63.00;;;;;;5054194;28;20036;-85
2021/08/30 03:53:12;;;;;;;3.42;3.30;;;18.10;63.10;;;;;;5052157;28;20044;-84
2021/08/30 03:55:38;;;;;;;3.55;3.35;;;18.10;63.20;;;;;;5053234;28;20044;-84
2021/08/30 03:58:04;;;;;;;3.60;3.45;;;18.10;63.20;;;;;;5051252;28;20474;-84
2021/08/30 04:00:30;;;;;;;3.17;3.08;;;18.00;63.20;;;;;;5051340;28;20048;-84
2021/08/30 04:02:56;;;;;;;3.40;3.30;;;18.10;63.30;;;;;;5071760;28;20025;-83
2021/08/30 04:05:25;;;;;;;3.70;3.50;;;18.00;63.40;;;;;;5053242;28;20029;-85
2021/08/30 04:07:51;;;;;;;3.30;3.20;;;18.00;63.40;;;;;;5054708;28;20514;-84
2021/08/30 04:10:18;;;;;;;3.28;3.17;;;18.00;63.50;;;;;;5055512;28;20029;-84
2021/08/30 04:12:45;;;;;;;3.53;3.40;;;18.00;63.60;;;;;;5036786;28;20048;-84
2021/08/30 04:15:11;;;;;;;3.67;3.47;;;18.00;63.60;;;;;;5058874;28;20025;-84
2021/08/30 04:17:37;;;;;;;3.70;3.50;;;17.90;63.50;;;;;;5057520;28;20037;-85
2021/08/30 04:20:03;;;;;;;3.20;3.10;;;17.90;63.40;;;;;;5058468;28;20040;-84
2021/08/30 04:22:29;;;;;;;3.20;3.10;;;18.00;63.40;;;;;;5058482;28;20036;-84
2021/08/30 04:24:55;;;;;;;3.45;3.25;;;18.00;63.40;;;;;;5053419;28;20049;-85
2021/08/30 04:27:21;;;;;;;3.85;3.65;;;18.00;63.40;;;;;;5057846;28;20029;-86
2021/08/30 04:29:48;;;;;;;3.50;3.30;;;18.00;63.40;;;;;;5057393;28;20033;-84
2021/08/30 04:32:14;;;;;;;3.55;3.40;;;17.90;63.50;;;;;;5055717;28;20036;-83
2021/08/30 04:34:41;;;;;;;3.80;3.60;;;17.90;63.70;;;;;;5058131;28;20055;-83
2021/08/30 04:37:08;;;;;;;3.88;3.67;;;17.90;63.80;;;;;;5056501;28;20040;-83
2021/08/30 04:39:34;;;;;;;3.92;3.72;;;17.90;64.00;;;;;;5054226;28;20055;-84
2021/08/30 04:42:03;;;;;;;3.90;3.70;;;17.80;64.70;;;;;;5058734;28;20052;-84
2021/08/30 04:44:29;;;;;;;3.47;3.38;;;17.80;63.90;;;;;;5058183;28;20024;-84
2021/08/30 04:46:55;;;;;;;3.80;3.60;;;17.80;64.00;;;;;;5039816;28;20029;-85
2021/08/30 04:49:21;;;;;;;3.88;3.35;;;17.80;64.10;;;;;;5058071;28;20462;-84
2021/08/30 04:51:47;;;;;;;3.38;3.17;;;17.80;64.00;;;;;;5053720;28;20036;-84
2021/08/30 04:54:13;;;;;;;4.00;3.80;;;17.80;64.00;;;;;;5058423;28;20363;-85
2021/08/30 04:56:40;;;;;;;3.60;3.42;;;17.80;64.90;;;;;;5040040;28;20032;-85
2021/08/30 04:59:06;;;;;;;3.88;3.67;;;17.80;64.10;;;;;;5057916;28;20041;-85
2021/08/30 05:01:32;;;;;;;3.90;3.70;;;17.80;64.20;;;;;;5057218;28;20048;-85
2021/08/30 05:03:59;;;;;;;3.70;3.50;;;17.80;64.30;;;;;;5052111;28;20068;-84
2021/08/30 05:06:25;;;;;;;3.88;3.67;;;17.80;64.30;;;;;;5058169;28;20041;-84
2021/08/30 05:08:51;;;;;;;3.33;3.22;;;17.80;64.20;;;;;;5058017;28;20032;-84
2021/08/30 05:11:17;;;;;;;3.67;3.47;;;17.80;64.30;;;;;;5055133;28;20087;-85
2021/08/30 05:13:43;;;;;;;3.58;3.38;;;17.80;64.40;;;;;;5057425;28;20036;-85
2021/08/30 05:16:09;;;;;;;3.38;3.28;;;17.80;64.50;;;;;;5055281;28;20406;-84
2021/08/30 05:18:35;;;;;;;3.70;3.50;;;17.70;64.50;;;;;;5054723;28;20040;-84
2021/08/30 05:21:01;;;;;;;3.30;3.20;;;17.70;64.50;;;;;;5058679;28;20040;-84
2021/08/30 05:23:27;;;;;;;3.20;3.10;;;17.70;64.50;;;;;;5055612;28;20025;-86
2021/08/30 05:25:53;;;;;;;3.65;3.45;;;17.70;64.50;;;;;;5056243;28;20394;-85
2021/08/30 05:28:19;;;;;;;4.03;3.72;;;17.70;64.60;;;;;;5056155;28;20032;-84
2021/08/30 05:30:45;;;;;;;3.50;3.35;;;17.70;64.60;;;;;;5051569;28;20036;-84
2021/08/30 05:33:11;;;;;;;3.38;3.28;;;17.70;64.60;;;;;;5059258;28;20041;-84
2021/08/30 05:35:38;;;;;;;3.38;3.17;;;17.70;64.60;;;;;;5056830;28;20028;-85
2021/08/30 05:38:04;;;;;;;3.40;3.22;;;17.70;64.70;;;;;;5057199;28;20021;-84
2021/08/30 05:40:30;;;;;;;3.63;3.42;;;17.70;64.70;;;;;;5040801;28;20067;-84
2021/08/30 05:42:56;;;;;;;3.38;3.20;;;17.70;64.70;;;;;;5052027;28;20046;-84
2021/08/30 05:45:22;;;;;;;3.90;3.70;;;17.70;64.70;;;;;;5056892;28;20047;-85
2021/08/30 05:47:48;;;;;;;3.95;3.60;;;17.70;64.70;;;;;;5056014;28;20033;-84
2021/08/30 05:50:14;;;;;;;3.70;3.42;;;17.70;64.80;;;;;;5055238;28;20045;-84
2021/08/30 05:52:40;;;;;;;3.47;3.30;;;17.70;64.80;;;;;;5056779;28;20039;-84
2021/08/30 05:55:06;;;;;;;3.05;2.95;;;17.70;64.80;;;;;;5054624;28;20029;-83
2021/08/30 05:57:33;;;;;;;3.25;3.15;;;17.80;64.80;;;;;;5053520;28;20029;-85
2021/08/30 05:59:59;;;;;;;3.70;3.50;;;17.70;64.70;;;;;;5058429;28;20099;-85
2021/08/30 06:02:25;;;;;;;3.78;3.58;;;17.70;64.70;;;;;;5056136;28;20054;-84
2021/08/30 06:04:51;;;;;;;3.45;3.35;;;17.70;64.90;;;;;;5055031;28;20036;-84
2021/08/30 06:07:17;;;;;;;3.65;3.45;;;17.80;65.00;;;;;;5055905;28;20047;-84
2021/08/30 06:09:43;;;;;;;3.60;3.40;;;17.70;64.90;;;;;;5052655;28;20021;-85
2021/08/30 06:12:09;;;;;;;3.58;3.38;;;17.70;65.00;;;;;;5058313;28;20036;-84
2021/08/30 06:14:35;;;;;;;3.53;3.38;;;17.70;65.10;;;;;;5055083;28;20037;-85
2021/08/30 06:17:01;;;;;;;3.63;3.42;;;17.70;65.30;;;;;;5054905;28;20029;-84
2021/08/30 06:19:28;;;;;;;3.65;3.45;;;17.70;65.30;;;;;;5056000;28;20505;-84
2021/08/30 06:21:54;;;;;;;3.30;3.10;;;17.70;65.30;;;;;;5050728;28;20490;-85
2021/08/30 06:24:20;;;;;;;3.10;3.00;;;17.80;65.50;;;;;;5056413;28;20044;-85
2021/08/30 06:26:46;;;;;;;4.05;3.85;;;17.70;65.40;;;;;;5056372;28;20611;-84
2021/08/30 06:29:12;;;;;;;3.30;3.20;;;17.80;65.40;;;;;;5054640;28;20037;-86
2021/08/30 06:31:38;;;;;;;3.45;3.30;;;17.80;65.70;;;;;;5055605;28;20041;-84
2021/08/30 06:34:04;;;;;;;3.85;3.65;;;17.80;65.70;;;;;;5051823;28;20048;-85
2021/08/30 06:36:30;;;;;;;3.47;3.28;;;17.80;65.70;;;;;;5036703;28;20029;-84
2021/08/30 06:38:56;;;;;;;7.25;3.08;;;17.80;65.70;;;;;;5057442;28;20040;-84
2021/08/30 06:41:23;;;;;;;3.28;3.17;;;17.80;65.50;;;;;;5054678;28;20041;-83
2021/08/30 06:43:49;;;;;;;3.53;3.33;;;17.90;65.70;;;;;;5055722;28;20032;-84
2021/08/30 06:46:15;;;;;;;4.93;3.35;;;17.90;65.60;;;;;;5053198;28;20032;-84
2021/08/30 06:48:41;;;;;;;3.80;3.60;;;17.90;65.70;;;;;;5051935;28;20471;-85
2021/08/30 06:51:07;;;;;;;3.78;3.58;;;17.90;65.70;;;;;;5040136;28;20043;-84
2021/08/30 06:53:33;;;;;;;3.22;3.10;;;18.00;65.80;;;;;;5055614;28;20036;-85
2021/08/30 06:55:59;;;;;;;2.85;2.75;;;17.90;65.90;;;;;;5055519;28;20033;-84
2021/08/30 06:58:26;;;;;;;3.05;2.95;;;18.00;66.00;;;;;;5055590;28;20025;-84
2021/08/30 07:00:52;;;;;;;3.10;3.00;;;18.00;66.10;;;;;;5048188;28;20040;-85
2021/08/30 07:03:18;;;;;;;19.02;3.60;;;18.00;66.20;;;;;;5055778;28;20398;-84
2021/08/30 07:05:44;;;;;;;2.95;2.85;;;18.00;66.10;;;;;;5055395;28;20037;-85
2021/08/30 07:08:10;;;;;;;3.22;3.13;;;18.00;66.20;;;;;;5054237;28;20037;-85
2021/08/30 07:10:36;;;;;;;4.05;3.85;;;18.00;66.40;;;;;;5054134;28;20029;-85
2021/08/30 07:13:02;;;;;;;3.00;2.90;;;18.00;66.60;;;;;;5052650;28;20417;-84
2021/08/30 07:15:28;;;;;;;2.70;2.60;;;18.00;66.70;;;;;;5053884;28;20497;-85
2021/08/30 07:17:54;;;;;;;7.97;3.55;;;18.00;66.80;;;;;;5088365;28;20032;-85
2021/08/30 07:20:21;;;;;;;2.97;2.85;;;18.00;66.80;;;;;;5053915;28;20032;-85
2021/08/30 07:22:47;;;;;;;4.72;2.90;;;18.10;66.80;;;;;;5055006;28;20067;-85
2021/08/30 07:25:13;;;;;;;3.35;3.15;;;18.10;66.80;;;;;;5052668;28;20021;-84
2021/08/30 07:27:39;;;;;;;2.60;2.50;;;18.10;67.60;;;;;;5052014;28;20051;-84
2021/08/30 07:30:05;;;;;;;2.85;2.75;;;18.10;66.80;;;;;;5056491;28;20040;-85
2021/08/30 07:32:31;;;;;;;2.67;2.58;;;18.20;66.80;;;;;;5053429;28;20025;-85
2021/08/30 07:34:58;;;;;;;2.70;2.60;;;18.20;66.80;;;;;;5054816;28;20610;-85
2021/08/30 07:37:24;;;;;;;3.00;2.90;;;18.20;66.70;;;;;;5055586;28;20036;-84
2021/08/30 07:39:50;;;;;;;3.88;3.67;;;18.30;66.70;;;;;;5048033;28;20243;-85
2021/08/30 07:42:16;;;;;;;3.10;2.90;;;18.30;66.60;;;;;;5063917;28;20044;-85
2021/08/30 07:44:42;;;;;;;2.70;2.60;;;18.30;66.60;;;;;;5054684;28;20029;-84
2021/08/30 07:47:08;;;;;;;2.90;2.80;;;18.30;66.60;;;;;;5051514;28;20040;-85
2021/08/30 07:49:34;;;;;;;3.08;2.97;;;18.40;66.80;;;;;;5054817;28;20021;-85
2021/08/30 07:52:00;;;;;;;3.20;3.10;;;18.40;66.80;;;;;;5050653;28;20044;-84
2021/08/30 07:54:26;;;;;;;2.95;2.85;;;18.50;66.80;;;;;;5053436;28;20386;-85
2021/08/30 07:56:52;;;;;;;2.70;2.60;;;18.40;66.80;;;;;;5055803;28;20037;-84
2021/08/30 07:59:19;;;;;;;2.92;2.83;;;18.40;66.80;;;;;;5053778;28;20029;-85
2021/08/30 08:01:46;;;;;;;3.17;3.00;;;18.50;66.70;;;;;;5054277;28;20041;-85
2021/08/30 08:04:12;;;;;;;4.05;3.85;;;18.60;66.60;;;;;;5053729;28;20037;-85
2021/08/30 08:06:38;;;;;;;2.92;2.83;;;18.60;66.50;;;;;;5051492;28;20029;-85
2021/08/30 08:09:05;;;;;;;3.22;3.13;;;18.60;66.50;;;;;;5056611;28;20378;-85
2021/08/30 08:11:31;;;;;;;3.05;2.92;;;18.70;66.60;;;;;;5053393;28;20033;-86
2021/08/30 08:13:57;;;;;;;7.97;7.57;;;18.70;66.60;;;;;;5054836;28;20041;-85
2021/08/30 08:16:23;;;;;;;3.10;3.00;;;18.70;66.60;;;;;;5052578;28;20033;-83
2021/08/30 08:18:52;;;;;;;3.15;3.05;;;18.70;66.70;;;;;;5048855;28;20066;-85
2021/08/30 08:21:20;;;;;;;3.22;3.13;;;18.70;66.80;;;;;;5064334;28;20397;-84
2021/08/30 08:23:47;;;;;;;3.40;3.15;;;18.70;66.80;;;;;;5054967;28;20036;-84
2021/08/30 08:26:13;;;;;;;2.90;2.80;;;18.70;66.70;;;;;;5053191;28;20029;-85
2021/08/30 08:28:39;;;;;;;3.97;3.78;;;18.80;66.70;;;;;;5053238;28;20036;-85
2021/08/30 08:31:05;;;;;;;3.30;3.20;;;18.80;66.70;;;;;;5051244;28;20040;-85
2021/08/30 08:33:31;;;;;;;3.38;3.25;;;18.90;66.80;;;;;;5051488;28;20055;-85
2021/08/30 08:35:57;;;;;;;3.90;3.70;;;18.80;66.70;;;;;;5054510;28;20398;-85
2021/08/30 08:38:23;;;;;;;3.30;3.20;;;18.90;66.80;;;;;;5054473;28;20017;-85
2021/08/30 08:40:51;;;;;;;3.25;3.15;;;18.90;66.70;;;;;;5054440;28;20044;-86
2021/08/30 08:43:17;;;;;;;5.18;4.97;;;19.00;66.60;;;;;;5052313;28;20035;-85
2021/08/30 08:45:44;;;;;;;3.78;3.58;;;19.10;66.60;;;;;;5048578;28;20052;-83
2021/08/30 08:48:10;;;;;;;3.78;3.58;;;19.10;66.50;;;;;;5056243;28;20033;-85
2021/08/30 08:50:36;;;;;;;4.30;4.10;;;19.20;66.60;;;;;;5054273;28;20040;-84
2021/08/30 08:53:05;;;;;;;3.25;3.15;;;19.20;66.60;;;;;;5054166;28;20474;-85
2021/08/30 08:55:36;;;;;;;3.10;3.00;;;19.20;66.50;;;;;;5053223;28;20036;-85
2021/08/30 08:58:12;;;;;;;;;;;19.30;66.60;;;;;;5053248;28;20033;-84
2021/08/30 09:00:39;;;;;;;3.42;3.28;;;19.30;66.40;;;;;;5054015;28;19916;-85
2021/08/30 09:03:19;;;;;;;3.97;3.78;;;19.30;66.60;;;;;;5058439;28;20048;-85
2021/08/30 09:05:46;;;;;;;3.20;3.10;;;19.30;66.60;;;;;;5038876;28;20032;-84
2021/08/30 09:08:25;;;;;;;3.35;3.22;;;19.30;66.70;;;;;;5056446;28;20036;-84
2021/08/30 09:10:51;;;;;;;3.30;3.10;;;19.20;66.70;;;;;;5040120;28;20406;-87
2021/08/30 09:13:17;;;;;;;3.80;3.60;;;19.30;66.70;;;;;;5056479;28;20021;-84
2021/08/30 09:15:43;;;;;;;9.43;8.98;;;19.30;66.70;;;;;;5035370;28;20497;-86
2021/08/30 09:18:10;;;;;;;3.17;3.08;;;19.30;66.70;;;;;;5058290;28;20035;-85
2021/08/30 09:20:37;;;;;;;3.80;3.60;;;19.30;66.70;;;;;;5057543;28;20486;-85
2021/08/30 09:23:11;;;;;;;8.73;8.32;;;19.30;66.90;;;;;;5057584;28;20067;-84
2021/08/30 09:25:37;;;;;;;3.63;3.42;;;19.30;67.10;;;;;;5039712;28;20473;-85
2021/08/30 09:28:03;;;;;;;2.80;2.70;;;19.30;67.30;;;;;;5053448;28;20037;-86
2021/08/30 09:30:29;;;;;;;2.90;2.80;;;19.30;67.30;;;;;;5038127;28;20024;-84
2021/08/30 09:32:56;;;;;;;2.80;2.70;;;19.30;67.20;;;;;;5058284;28;20037;-85
2021/08/30 09:35:22;;;;;;;3.72;3.53;;;19.30;67.20;;;;;;5057181;28;20036;-85
2021/08/30 09:37:48;;;;;;;2.72;2.63;;;19.30;67.30;;;;;;5054093;28;20041;-84
2021/08/30 09:40:19;;;;;;;2.97;2.85;;;19.30;67.50;;;;;;5056048;28;20020;-84
2021/08/30 09:42:54;;;;;;;3.55;3.25;;;19.30;67.60;;;;;;5052257;28;20398;-84
2021/08/30 09:45:22;;;;;;;2.75;2.65;;;19.30;67.60;;;;;;5066249;28;20033;-85
2021/08/30 09:47:58;;;;;;;3.65;3.38;;;19.30;67.60;;;;;;5055673;28;20041;-84
2021/08/30 09:50:28;;;;;;;2.75;2.65;;;19.40;67.60;;;;;;5055690;28;20028;-85
2021/08/30 09:52:55;;;;;;;2.72;2.63;;;19.40;67.60;;;;;;5055835;28;20045;-85
2021/08/30 09:55:21;;;;;;;2.80;2.70;;;19.40;67.70;;;;;;5055487;28;20039;-85
2021/08/30 09:57:49;;;;;;;3.00;2.90;;;19.40;67.60;;;;;;5051167;28;20045;-84
2021/08/30 10:00:16;;;;;;;2.92;2.83;;;19.50;67.50;;;;;;5057008;28;20045;-84
2021/08/30 10:02:47;;;;;;;3.80;3.50;;;19.60;67.30;;;;;;5038946;28;20037;-85
2021/08/30 10:05:14;;;;;;;;;;;19.70;67.20;;;;;;5055775;28;20028;-83
2021/08/30 10:07:41;;;;;;;3.20;3.00;;;19.80;67.00;;;;;;5054709;28;19908;-85
2021/08/30 10:10:07;;;;;;;3.60;3.30;;;19.80;66.90;;;;;;5054389;28;20029;-84
2021/08/30 10:12:33;;;;;;;3.60;3.40;;;19.90;66.80;;;;;;5052810;28;20021;-83
2021/08/30 10:14:59;;;;;;;5.13;4.93;;;20.00;66.70;;;;;;5073893;28;20040;-85
2021/08/30 10:17:26;;;;;;;3.90;3.70;;;20.00;66.60;;;;;;5053192;28;20040;-85
2021/08/30 10:19:56;;;;;;;4.82;4.55;;;20.10;66.50;;;;;;5038709;28;20091;-86
2021/08/30 10:22:23;;;;;;;7.97;7.57;;;20.10;66.40;;;;;;5053736;28;20481;-85
2021/08/30 10:24:49;;;;;;;4.95;4.75;;;20.20;66.40;;;;;;5033516;28;20033;-85
2021/08/30 10:27:15;;;;;;;4.18;3.97;;;20.20;66.30;;;;;;5073205;28;20052;-84
2021/08/30 10:29:43;;;;;;;4.60;4.30;;;20.20;66.30;;;;;;5054934;28;20033;-85
2021/08/30 10:32:30;;;;;;;6.63;6.32;;;20.30;66.20;;;;;;5037945;28;20405;-84
2021/08/30 10:34:57;;;;;;;5.75;5.45;;;20.50;66.00;;;;;;5054528;28;20044;-84
2021/08/30 10:37:23;;;;;;;5.03;4.72;;;20.60;65.70;;;;;;5056178;28;20029;-85
2021/08/30 10:39:54;;;;;;;4.15;3.95;;;20.80;65.40;;;;;;5034642;28;20021;-85
2021/08/30 10:42:20;;;;;;;4.43;4.22;;;21.10;64.90;;;;;;5065388;28;20041;-85
2021/08/30 10:44:54;;;;;;;4.40;4.20;;;21.40;64.10;;;;;;5056207;28;20033;-85
2021/08/30 10:47:41;;;;;;;4.75;4.55;;;21.50;63.70;;;;;;5054204;28;20390;-84
2021/08/30 10:50:18;;;;;;;4.30;4.10;;;21.60;63.50;;;;;;5055653;28;20036;-85
2021/08/30 10:52:44;;;;;;;9.95;4.15;;;21.60;63.40;;;;;;5054483;28;20032;-85
2021/08/30 10:55:18;;;;;;;4.60;4.40;;;21.60;63.40;;;;;;5052157;28;20410;-85
2021/08/30 10:57:51;;;;;;;4.68;4.47;;;21.60;63.40;;;;;;5034451;28;20028;-85
2021/08/30 11:00:27;;;;;;;4.53;4.32;;;21.60;63.40;;;;;;5068422;28;20033;-85
2021/08/30 11:02:55;;;;;;;6.32;4.45;;;21.60;63.30;;;;;;5055350;28;20033;-87
2021/08/30 11:05:26;;;;;;;4.65;4.45;;;21.60;63.90;;;;;;5055528;28;20041;-85
2021/08/30 11:07:55;;;;;;;5.13;4.93;;;21.70;63.10;;;;;;5055322;28;20032;-85
2021/08/30 11:10:23;;;;;;;4.75;4.55;;;21.60;62.90;;;;;;5053855;28;20032;-84
2021/08/30 11:12:49;;;;;;;5.35;4.97;;;21.60;63.10;;;;;;5033651;28;20033;-85
2021/08/30 11:15:15;;;;;;;4.60;4.40;;;21.50;63.10;;;;;;5055567;28;20083;-85
2021/08/30 11:17:42;;;;;;;4.82;4.63;;;21.50;63.10;;;;;;5054122;28;20029;-85
2021/08/30 11:20:08;;;;;;;7.43;6.93;;;21.50;63.10;;;;;;5054769;28;20037;-85
2021/08/30 11:22:34;;;;;;;5.28;5.07;;;21.50;63.00;;;;;;5055030;28;20036;-88
2021/08/30 11:25:01;;;;;;;5.47;5.18;;;21.60;62.70;;;;;;5052153;28;20473;-85
2021/08/30 11:27:30;;;;;;;5.63;5.35;;;21.60;62.50;;;;;;5053766;28;20044;-86
2021/08/30 11:29:59;;;;;;;7.55;7.18;;;21.70;62.30;;;;;;5056303;28;20025;-84
2021/08/30 11:32:27;;;;;;;5.25;4.95;;;21.70;62.20;;;;;;5053466;28;20021;-84
2021/08/30 11:34:53;;;;;;;7.72;7.35;;;21.70;62.00;;;;;;5035658;28;20041;-85
2021/08/30 11:37:23;;;;;;;6.70;6.00;;;21.60;62.00;;;;;;5054478;28;20037;-84
2021/08/30 11:39:50;;;;;;;5.60;5.32;;;21.60;62.10;;;;;;5017550;28;20517;-84
2021/08/30 11:42:18;;;;;;;5.97;5.68;;;21.50;62.20;;;;;;5063996;28;20037;-85
2021/08/30 11:44:44;;;;;;;4.35;4.15;;;21.40;62.50;;;;;;5053563;28;20036;-85
2021/08/30 11:47:12;;;;;;;4.00;3.80;;;21.30;62.80;;;;;;5054409;28;20036;-85
2021/08/30 11:49:55;;;;;;;4.60;4.40;;;21.20;62.90;;;;;;5037290;28;20410;-85
2021/08/30 11:52:26;;;;;;;4.90;4.60;;;21.30;63.00;;;;;;5053585;28;20028;-85
2021/08/30 11:55:12;;;;;;;4.50;4.30;;;21.40;62.80;;;;;;5033897;28;20037;-85
2021/08/30 11:57:49;;;;;;;6.22;5.93;;;21.70;62.60;;;;;;5050567;28;20481;-85
2021/08/30 12:00:22;;;;;;;6.22;5.93;;;21.90;62.00;;;;;;5055180;28;20021;-85
2021/08/30 12:03:01;;;;;;;5.53;5.25;;;22.10;61.60;;;;;;5055099;28;20044;-85
2021/08/30 12:05:28;;;;;;;6.63;6.22;;;22.30;61.40;;;;;;5038357;28;20367;-85
2021/08/30 12:07:55;;;;;;;4.70;4.40;;;22.40;60.90;;;;;;5054258;28;20036;-86
2021/08/30 12:10:22;;;;;;;5.25;4.95;;;22.50;60.60;;;;;;5037055;28;20028;-85
2021/08/30 12:15:28;;;;;;;4.97;4.78;;;22.70;60.10;;;;;;5069441;28;20417;-85
2021/08/30 12:17:55;;;;;;;5.00;4.80;;;22.80;60.00;;;;;;5055614;28;20018;-85
2021/08/30 12:20:38;;;;;;;4.95;4.75;;;22.90;59.90;;;;;;5052072;28;20482;-85
2021/08/30 12:23:09;;;;;;;4.60;4.40;;;22.80;59.80;;;;;;5052998;28;20052;-85
2021/08/30 12:25:40;;;;;;;4.60;4.40;;;22.70;59.90;;;;;;5034201;28;20029;-84
2021/08/30 12:28:07;;;;;;;5.10;4.70;;;22.50;60.30;;;;;;5064739;28;20041;-84
2021/08/30 12:30:35;;;;;;;5.00;4.80;;;22.40;60.70;;;;;;5052460;28;20036;-84
2021/08/30 12:33:09;;;;;;;4.97;4.78;;;22.30;61.00;;;;;;5090600;28;20021;-85
2021/08/30 12:35:37;;;;;;;5.28;5.03;;;22.30;61.30;;;;;;5057773;28;20033;-85
2021/08/30 12:38:09;;;;;;;4.70;4.50;;;22.30;61.30;;;;;;5058054;28;20041;-85
2021/08/30 12:40:37;;;;;;;4.82;4.53;;;22.40;61.30;;;;;;5056903;28;20025;-84
2021/08/30 12:43:04;;;;;;;4.43;4.22;;;22.50;61.00;;;;;;5053945;28;20049;-84
2021/08/30 12:45:30;;;;;;;4.68;4.47;;;22.70;60.60;;;;;;5056212;28;20036;-85
2021/08/30 12:47:56;;;;;;;5.72;5.43;;;23.00;60.10;;;;;;5091872;28;20028;-85
2021/08/30 12:50:23;;;;;;;5.65;5.35;;;23.10;59.70;;;;;;5056619;28;20504;-83
2021/08/30 12:52:49;;;;;;;6.35;6.05;;;23.10;59.70;;;;;;5056337;28;20037;-85
2021/08/30 12:55:15;;;;;;;5.97;5.68;;;23.10;59.50;;;;;;5057044;28;20032;-85